Time;durP1;ratioP1;P1;durP2;ratioP2;P2;SDS_P1;SDS_P2;PMS_P1;PMS_P2;Temp;Humidity;BMP_temperature;BMP_pressure;BME280_temperature;BME280_humidity;BME280_pressure;Samples;Min_cycle;Max_cycle;Signal;HPM_P1;HPM_P2
2023/07/24 00:00:24;;;;;;;;;;;;;;;25.71;37.46;100633.81;5065979;28;19916;-88
2023/07/24 00:02:50;;;;;;;;;;;;;;;25.70;37.50;100637.69;5061895;28;19928;-89
2023/07/24 00:05:15;;;;;;;;;;;;;;;25.67;37.63;100628.19;5064399;28;19916;-89
2023/07/24 00:07:40;;;;;;;;;;;;;;;25.64;37.59;100620.66;5060756;28;19921;-88
2023/07/24 00:10:06;;;;;;;;;;;;;;;25.60;37.77;100617.81;5064526;28;19921;-89
2023/07/24 00:12:31;;;;;;;;;;;;;;;25.59;37.70;100609.94;5065318;28;19993;-88
2023/07/24 00:14:57;;;;;;;;;;;;;;;25.57;37.74;100596.59;5055248;28;19971;-88
2023/07/24 00:17:22;;;;;;;;;;;;;;;25.57;37.76;100593.03;5069497;28;20071;-88
2023/07/24 00:19:48;;;;;;;;;;;;;;;25.56;37.78;100595.00;5064832;28;20359;-88
2023/07/24 00:22:13;;;;;;;;;;;;;;;25.57;37.78;100599.34;5064481;28;19916;-88
2023/07/24 00:24:38;;;;;;;;;;;;;;;25.56;37.69;100594.19;5064720;28;19920;-89
2023/07/24 00:27:04;;;;;;;;;;;;;;;25.57;37.82;100593.84;5061480;28;20434;-89
2023/07/24 00:29:29;;;;;;;;;;;;;;;25.56;37.92;100592.25;5065627;28;19942;-88
2023/07/24 00:31:54;;;;;;;;;;;;;;;25.55;38.04;100592.59;5059829;28;20000;-88
2023/07/24 00:34:20;;;;;;;;;;;;;;;25.56;38.15;100585.97;5062923;28;20396;-89
2023/07/24 00:36:45;;;;;;;;;;;;;;;25.59;37.88;100586.06;5062998;28;20391;-88
2023/07/24 00:39:10;;;;;;;;;;;;;;;25.63;37.99;100582.59;5067330;28;19917;-88
2023/07/24 00:41:36;;;;;;;;;;;;;;;25.66;37.98;100576.41;5052726;28;20420;-88
2023/07/24 00:44:01;;;;;;;;;;;;;;;25.68;37.98;100579.66;5065728;28;19921;-89
2023/07/24 00:46:28;;;;;;;;;;;;;;;25.68;37.98;100574.16;5065498;28;20308;-88
2023/07/24 00:48:54;;;;;;;;;;;;;;;25.68;38.06;100579.66;5067071;28;19917;-88
2023/07/24 00:51:19;;;;;;;;;;;;;;;25.68;38.06;100579.66;5067166;28;20283;-89
2023/07/24 00:53:47;;;;;;;;;;;;;;;25.67;38.08;100576.03;5063109;28;19920;-88
2023/07/24 00:56:12;;;;;;;;;;;;;;;25.66;38.07;100573.66;5056940;28;19928;-89
2023/07/24 00:58:38;;;;;;;;;;;;;;;25.63;38.13;100566.94;5062585;28;20558;-88
2023/07/24 01:01:04;;;;;;;;;;;;;;;25.59;38.21;100566.84;5065185;28;19916;-88
2023/07/24 01:03:34;;;;;;;;;;;;;;;25.57;38.27;100568.34;5060259;28;19988;-87
2023/07/24 01:06:03;;;;;;;;;;;;;;;25.54;38.40;100566.31;5068576;28;19940;-89
2023/07/24 01:08:29;;;;;;;;;;;;;;;25.51;38.37;100569.78;5061489;28;19976;-88
2023/07/24 01:10:58;;;;;;;;;;;;;;;25.51;38.44;100564.28;5058396;28;19975;-88
2023/07/24 01:13:25;;;;;;;;;;;;;;;25.51;38.44;100556.06;5051131;28;20536;-88
2023/07/24 01:16:00;;;;;;;;;;;;;;;25.50;38.58;100551.72;5062661;28;19921;-88
2023/07/24 01:18:28;;;;;;;;;;;;;;;25.49;38.47;100553.66;5068890;28;19967;-88
2023/07/24 01:20:56;;;;;;;;;;;;;;;25.49;38.56;100536.41;5063119;28;19927;-88
2023/07/24 01:23:45;;;;;;;;;;;;;;;25.50;38.67;100546.25;5056051;28;19936;-88
2023/07/24 01:26:10;;;;;;;;;;;;;;;25.46;38.81;100540.66;5051404;28;19920;-88
2023/07/24 01:28:36;;;;;;;;;;;;;;;25.41;38.76;100535.44;5062515;28;19927;-88
2023/07/24 01:31:01;;;;;;;;;;;;;;;25.40;38.92;100533.03;5060144;28;19970;-88
2023/07/24 01:33:27;;;;;;;;;;;;;;;25.41;38.76;100529.94;5052815;28;19923;-89
2023/07/24 01:35:57;;;;;;;;;;;;;;;25.42;38.86;100526.06;5058498;28;19970;-88
2023/07/24 01:38:25;;;;;;;;;;;;;;;25.43;38.61;100535.88;5060371;28;20007;-88
2023/07/24 01:40:51;;;;;;;;;;;;;;;25.46;38.72;100517.91;5062276;28;19924;-89
2023/07/24 01:43:17;;;;;;;;;;;;;;;25.46;38.87;100515.97;5060056;28;19931;-88
2023/07/24 01:45:42;;;;;;;;;;;;;;;25.46;38.85;100512.41;5064528;28;19925;-89
2023/07/24 01:48:07;;;;;;;;;;;;;;;25.46;38.87;100502.25;5060313;28;19921;-88
2023/07/24 01:50:32;;;;;;;;;;;;;;;25.44;38.86;100501.81;5059758;28;19923;-89
2023/07/24 01:52:58;;;;;;;;;;;;;;;25.44;38.95;100504.56;5061266;28;20392;-88
2023/07/24 01:55:23;;;;;;;;;;;;;;;25.44;38.93;100507.28;5059123;28;20301;-87
2023/07/24 01:57:49;;;;;;;;;;;;;;;25.44;38.96;100503.75;5062490;28;19920;-88
2023/07/24 02:00:14;;;;;;;;;;;;;;;25.40;39.33;100500.13;5065739;28;19923;-88
2023/07/24 02:02:39;;;;;;;;;;;;;;;25.35;39.31;100503.16;5057599;28;19963;-88
2023/07/24 02:05:05;;;;;;;;;;;;;;;25.30;39.35;100502.25;5066901;28;19916;-89
2023/07/24 02:07:30;;;;;;;;;;;;;;;25.24;39.43;100511.88;5061469;28;19932;-88
2023/07/24 02:09:56;;;;;;;;;;;;;;;25.20;39.48;100501.97;5063534;28;19974;-88
2023/07/24 02:12:21;;;;;;;;;;;;;;;25.15;39.62;100500.31;5061403;28;19916;-87
2023/07/24 02:14:49;;;;;;;;;;;;;;;25.14;39.48;100490.50;5065701;28;19969;-88
2023/07/24 02:17:15;;;;;;;;;;;;;;;25.16;39.62;100474.47;5065713;28;20518;-87
2023/07/24 02:19:40;;;;;;;;;;;;;;;25.20;39.62;100480.06;5060907;28;19939;-88
2023/07/24 02:22:05;;;;;;;;;;;;;;;25.21;39.67;100478.91;5065901;28;19989;-88
2023/07/24 02:24:31;;;;;;;;;;;;;;;25.21;39.68;100470.69;5056846;28;21311;-88
2023/07/24 02:26:56;;;;;;;;;;;;;;;25.23;39.67;100477.41;5059125;28;20277;-88
2023/07/24 02:29:22;;;;;;;;;;;;;;;25.24;39.65;100478.97;5062709;28;19964;-87
2023/07/24 02:31:47;;;;;;;;;;;;;;;25.21;39.74;100478.91;5061784;28;19922;-88
2023/07/24 02:34:13;;;;;;;;;;;;;;;25.19;39.83;100483.94;5057323;28;19917;-88
2023/07/24 02:36:38;;;;;;;;;;;;;;;25.16;39.81;100477.22;5064642;28;19920;-88
2023/07/24 02:39:04;;;;;;;;;;;;;;;25.13;39.73;100471.63;5063178;28;19999;-87
2023/07/24 02:41:29;;;;;;;;;;;;;;;25.13;39.99;100496.28;5053659;28;19932;-88
2023/07/24 02:43:54;;;;;;;;;;;;;;;25.09;39.86;100490.72;5057206;28;20277;-87
2023/07/24 02:46:20;;;;;;;;;;;;;;;25.08;39.98;100482.88;5055970;28;19927;-88
2023/07/24 02:48:45;;;;;;;;;;;;;;;25.07;39.93;100484.81;5054004;28;20014;-88
2023/07/24 02:51:10;;;;;;;;;;;;;;;25.07;39.90;100486.75;5055702;28;20019;-87
2023/07/24 02:53:36;;;;;;;;;;;;;;;25.05;40.01;100481.63;5053143;28;20378;-88
2023/07/24 02:56:02;;;;;;;;;;;;;;;25.05;39.93;100480.81;5057176;28;19928;-88
2023/07/24 02:58:27;;;;;;;;;;;;;;;25.04;40.24;100485.50;5060597;28;19982;-89
2023/07/24 03:00:52;;;;;;;;;;;;;;;25.03;39.89;100485.88;5064874;28;19916;-89
2023/07/24 03:03:18;;;;;;;;;;;;;;;25.03;40.01;100488.59;5067438;28;20347;-88
2023/07/24 03:05:43;;;;;;;;;;;;;;;25.00;40.12;100501.88;5067283;28;20371;-88
2023/07/24 03:08:09;;;;;;;;;;;;;;;24.96;40.14;100490.00;5061320;28;20310;-88
2023/07/24 03:10:34;;;;;;;;;;;;;;;24.95;40.32;100493.84;5060591;28;20328;-87
2023/07/24 03:12:59;;;;;;;;;;;;;;;24.94;40.26;100492.25;5065310;28;19947;-88
2023/07/24 03:15:24;;;;;;;;;;;;;;;24.97;40.14;100490.78;5069549;28;20628;-88
2023/07/24 03:17:50;;;;;;;;;;;;;;;24.97;40.20;100480.63;5061866;28;19924;-88
2023/07/24 03:20:16;;;;;;;;;;;;;;;24.97;40.20;100486.09;5060016;28;19920;-87
2023/07/24 03:22:42;;;;;;;;;;;;;;;24.97;40.33;100488.06;5061614;28;19927;-89
2023/07/24 03:25:07;;;;;;;;;;;;;;;24.94;40.28;100492.25;5065365;28;20355;-89
2023/07/24 03:27:33;;;;;;;;;;;;;;;24.90;40.39;100493.31;5062659;28;19920;-87
2023/07/24 03:29:58;;;;;;;;;;;;;;;24.91;40.32;100497.66;5066759;28;20228;-89
2023/07/24 03:32:23;;;;;;;;;;;;;;;24.91;40.41;100494.91;5066354;28;19966;-88
2023/07/24 03:34:49;;;;;;;;;;;;;;;24.91;40.56;100492.97;5064367;28;19924;-89
2023/07/24 03:37:14;;;;;;;;;;;;;;;24.92;40.42;100489.06;5069104;28;19924;-88
2023/07/24 03:39:39;;;;;;;;;;;;;;;24.92;40.62;100486.34;5064710;28;19927;-88
2023/07/24 03:42:05;;;;;;;;;;;;;;;24.90;40.76;100485.91;5063869;28;20254;-88
2023/07/24 03:44:30;;;;;;;;;;;;;;;24.89;40.70;100487.03;5066464;28;20115;-88
2023/07/24 03:46:55;;;;;;;;;;;;;;;24.92;40.58;100500.03;5064786;28;19970;-89
2023/07/24 03:49:22;;;;;;;;;;;;;;;24.95;40.54;100487.56;5066864;28;19924;-88
2023/07/24 03:51:47;;;;;;;;;;;;;;;24.98;40.58;100495.13;5066428;28;20404;-89
2023/07/24 03:54:13;;;;;;;;;;;;;;;24.99;40.75;100492.06;5062981;28;19923;-88
2023/07/24 03:56:38;;;;;;;;;;;;;;;25.03;40.75;100488.59;5061686;28;19924;-87
2023/07/24 03:59:03;;;;;;;;;;;;;;;25.06;40.70;100490.63;5061749;28;19921;-89
2023/07/24 04:01:28;;;;;;;;;;;;;;;25.07;40.76;100490.28;5061360;28;20368;-89
2023/07/24 04:03:54;;;;;;;;;;;;;;;25.10;40.86;100494.25;5060971;28;19975;-89
2023/07/24 04:06:19;;;;;;;;;;;;;;;25.13;40.78;100493.56;5061065;28;19958;-89
2023/07/24 04:08:44;;;;;;;;;;;;;;;25.16;40.65;100493.69;5063266;28;19997;-88
2023/07/24 04:11:10;;;;;;;;;;;;;;;25.19;40.62;100494.91;5062581;28;19917;-88
2023/07/24 04:13:35;;;;;;;;;;;;;;;25.22;40.66;100495.00;5064490;28;19920;-89
2023/07/24 04:16:03;;;;;;;;;;;;;;;25.25;40.70;100486.06;5063361;28;19924;-88
2023/07/24 04:18:29;;;;;;;;;;;;;;;25.29;40.82;100494.38;5063330;28;19924;-89
2023/07/24 04:20:55;;;;;;;;;;;;;;;25.31;40.56;100497.56;5058311;28;19928;-87
2023/07/24 04:23:21;;;;;;;;;;;;;;;25.32;40.35;100496.44;5059774;28;20062;-88
2023/07/24 04:25:46;;;;;;;;;;;;;;;25.34;40.37;100496.06;5064715;28;19924;-88
2023/07/24 04:28:11;;;;;;;;;;;;;;;25.35;40.30;100500.41;5065682;28;19913;-88
2023/07/24 04:30:36;;;;;;;;;;;;;;;25.36;40.43;100493.78;5066072;28;20629;-88
2023/07/24 04:33:02;;;;;;;;;;;;;;;25.38;40.39;100494.22;5061216;28;19917;-88
2023/07/24 04:35:27;;;;;;;;;;;;;;;25.38;40.65;100492.25;5065000;28;19917;-89
2023/07/24 04:37:52;;;;;;;;;;;;;;;25.37;40.51;100493.41;5062562;28;19916;-88
2023/07/24 04:40:18;;;;;;;;;;;;;;;25.39;40.17;100488.38;5060767;28;19926;-89
2023/07/24 04:42:43;;;;;;;;;;;;;;;25.39;40.57;100490.31;5060967;28;19929;-88
2023/07/24 04:45:09;;;;;;;;;;;;;;;25.38;41.19;100492.25;5060996;28;19912;-87
2023/07/24 04:47:36;;;;;;;;;;;;;;;25.41;40.62;100482.53;5066230;28;20331;-88
2023/07/24 04:50:02;;;;;;;;;;;;;;;25.40;40.84;100489.16;5060419;28;20098;-88
2023/07/24 04:52:27;;;;;;;;;;;;;;;25.42;40.69;100473.16;5061578;28;19913;-87
2023/07/24 04:54:52;;;;;;;;;;;;;;;25.48;40.87;100477.22;5061573;28;19920;-87
2023/07/24 04:57:18;;;;;;;;;;;;;;;25.55;41.23;100480.13;5061643;28;19959;-87
2023/07/24 04:59:43;;;;;;;;;;;;;;;25.55;41.71;100482.88;5059055;28;19927;-88
2023/07/24 05:02:08;;;;;;;;;;;;;;;25.53;41.30;100483.25;5065957;28;20015;-86
2023/07/24 05:04:33;;;;;;;;;;;;;;;25.55;41.63;100482.88;5067648;28;19954;-87
2023/07/24 05:06:59;;;;;;;;;;;;;;;25.64;41.69;100486.22;5060798;28;19917;-87
2023/07/24 05:09:24;;;;;;;;;;;;;;;25.67;41.94;100484.72;5059259;28;19916;-87
2023/07/24 05:11:49;;;;;;;;;;;;;;;25.70;41.74;100478.56;5058871;28;20500;-87
2023/07/24 05:14:15;;;;;;;;;;;;;;;25.72;42.09;100479.78;5055139;28;20368;-86
2023/07/24 05:16:40;;;;;;;;;;;;;;;25.73;41.92;100486.06;5059588;28;20397;-87
2023/07/24 05:19:05;;;;;;;;;;;;;;;25.76;42.23;100482.63;5060540;28;19921;-87
2023/07/24 05:21:31;;;;;;;;;;;;;;;25.81;41.99;100487.81;5059035;28;19927;-88
2023/07/24 05:23:56;;;;;;;;;;;;;;;25.77;41.97;100490.50;5055747;28;19928;-87
2023/07/24 05:26:22;;;;;;;;;;;;;;;25.75;42.31;100494.75;5056181;28;19916;-86
2023/07/24 05:28:47;;;;;;;;;;;;;;;25.73;42.99;100484.13;5054668;28;20316;-87
2023/07/24 05:31:12;;;;;;;;;;;;;;;25.76;43.31;100488.91;5058054;28;19924;-87
2023/07/24 05:33:37;;;;;;;;;;;;;;;25.75;43.21;100492.78;5062517;28;19916;-87
2023/07/24 05:36:03;;;;;;;;;;;;;;;25.77;43.31;100489.69;5061296;28;20049;-86
2023/07/24 05:38:29;;;;;;;;;;;;;;;25.75;43.92;100494.75;5055214;28;19916;-86
2023/07/24 05:40:55;;;;;;;;;;;;;;;25.79;43.62;100492.88;5060539;28;19920;-86
2023/07/24 05:43:20;;;;;;;;;;;;;;;25.77;44.16;100500.66;5056589;28;19924;-85
2023/07/24 05:45:46;;;;;;;;;;;;;;;25.69;44.13;100496.97;5059741;28;19932;-86
2023/07/24 05:48:11;;;;;;;;;;;;;;;25.60;44.99;100505.34;5058608;28;19916;-85
2023/07/24 05:50:36;;;;;;;;;;;;;;;25.48;46.16;100494.47;5052385;28;20416;-85
2023/07/24 05:53:02;;;;;;;;;;;;;;;25.42;45.38;100490.41;5053632;28;19916;-85
2023/07/24 05:55:27;;;;;;;;;;;;;;;25.41;45.54;100488.81;5056350;28;19932;-84
2023/07/24 05:57:52;;;;;;;;;;;;;;;25.41;46.56;100488.81;5056563;28;20560;-85
2023/07/24 06:00:18;;;;;;;;;;;;;;;25.42;45.80;100484.13;5057358;28;19951;-85
2023/07/24 06:02:44;;;;;;;;;;;;;;;25.39;45.97;100474.66;5054977;28;19935;-85
2023/07/24 06:05:10;;;;;;;;;;;;;;;25.49;46.17;100473.31;5052600;28;20415;-86
2023/07/24 06:07:35;;;;;;;;;;;;;;;25.55;46.57;100474.66;5054885;28;21133;-86
2023/07/24 06:10:00;;;;;;;;;;;;;;;25.58;46.44;100471.97;5056398;28;20427;-85
2023/07/24 06:12:26;;;;;;;;;;;;;;;25.58;46.10;100477.47;5046312;28;19996;-85
2023/07/24 06:14:51;;;;;;;;;;;;;;;25.64;45.94;100468.97;5054320;28;19916;-85
2023/07/24 06:17:16;;;;;;;;;;;;;;;25.75;46.79;100464.56;5055828;28;20424;-85
2023/07/24 06:19:42;;;;;;;;;;;;;;;25.94;46.11;100464.59;5057134;28;19923;-86
2023/07/24 06:22:07;;;;;;;;;;;;;;;26.07;46.21;100460.59;5051659;28;19925;-86
2023/07/24 06:24:32;;;;;;;;;;;;;;;26.18;45.67;100461.59;5055463;28;20015;-86
2023/07/24 06:26:58;;;;;;;;;;;;;;;26.30;46.15;100457.13;5055538;28;19926;-85
2023/07/24 06:29:23;;;;;;;;;;;;;;;26.33;45.92;100448.94;5056721;28;19924;-86
2023/07/24 06:31:49;;;;;;;;;;;;;;;26.40;45.70;100446.41;5054732;28;19924;-84
2023/07/24 06:34:15;;;;;;;;;;;;;;;26.53;45.71;100443.47;5053821;28;19931;-86
2023/07/24 06:36:40;;;;;;;;;;;;;;;26.63;45.72;100438.19;5059073;28;20309;-86
2023/07/24 06:39:05;;;;;;;;;;;;;;;26.76;45.38;100438.84;5060977;28;19958;-86
2023/07/24 06:41:31;;;;;;;;;;;;;;;26.85;45.45;100433.09;5075420;28;20539;-85
2023/07/24 06:43:56;;;;;;;;;;;;;;;26.88;45.13;100438.66;5061048;28;19920;-86
2023/07/24 06:46:21;;;;;;;;;;;;;;;26.89;45.24;100431.19;5059482;28;19924;-85
2023/07/24 06:48:46;;;;;;;;;;;;;;;26.96;44.84;100442.34;5067840;28;20150;-86
2023/07/24 06:51:12;;;;;;;;;;;;;;;26.96;45.61;100434.09;5064394;28;20387;-85
2023/07/24 06:53:37;;;;;;;;;;;;;;;27.03;45.73;100435.03;5060002;28;19924;-86
2023/07/24 06:56:02;;;;;;;;;;;;;;;27.17;45.49;100428.19;5065675;28;19924;-85
2023/07/24 06:58:28;;;;;;;;;;;;;;;27.37;44.61;100429.69;5058914;28;19920;-85
2023/07/24 07:00:53;;;;;;;;;;;;;;;27.55;44.47;100421.69;5061778;28;19916;-85
2023/07/24 07:03:18;;;;;;;;;;;;;;;27.69;44.58;100433.75;5060008;28;19931;-86
2023/07/24 07:05:43;;;;;;;;;;;;;;;27.83;44.51;100422.16;5064514;28;20356;-85
2023/07/24 07:08:09;;;;;;;;;;;;;;;27.89;44.45;100431.66;5061200;28;19931;-85
2023/07/24 07:10:34;;;;;;;;;;;;;;;27.88;44.01;100427.31;5063538;28;20108;-87
2023/07/24 07:12:59;;;;;;;;;;;;;;;27.90;44.14;100422.22;5059933;28;19921;-85
2023/07/24 07:15:25;;;;;;;;;;;;;;;27.98;43.87;100423.91;5062376;28;19924;-86
2023/07/24 07:17:50;;;;;;;;;;;;;;;28.06;43.83;100415.75;5058343;28;19932;-86
2023/07/24 07:20:15;;;;;;;;;;;;;;;28.16;43.72;100418.63;5061399;28;19916;-86
2023/07/24 07:22:41;;;;;;;;;;;;;;;28.31;43.43;100418.81;5056584;28;20418;-85
2023/07/24 07:25:06;;;;;;;;;;;;;;;28.37;43.21;100422.81;5057204;28;19921;-86
2023/07/24 07:27:31;;;;;;;;;;;;;;;28.43;43.43;100404.81;5063033;28;20300;-86
2023/07/24 07:29:57;;;;;;;;;;;;;;;28.51;43.55;100400.94;5061991;28;19917;-86
2023/07/24 07:32:22;;;;;;;;;;;;;;;28.57;43.03;100405.75;5060370;28;19928;-86
2023/07/24 07:34:48;;;;;;;;;;;;;;;28.63;43.08;100397.13;5062746;28;19920;-86
2023/07/24 07:37:13;;;;;;;;;;;;;;;28.73;42.63;100401.97;5049833;28;20533;-86
2023/07/24 07:39:38;;;;;;;;;;;;;;;28.80;42.47;100396.50;5062200;28;19917;-86
2023/07/24 07:42:04;;;;;;;;;;;;;;;28.79;42.14;100392.97;5059468;28;20147;-85
2023/07/24 07:44:29;;;;;;;;;;;;;;;28.92;42.47;100396.28;5058836;28;20337;-85
2023/07/24 07:46:54;;;;;;;;;;;;;;;28.98;41.82;100393.94;5063835;28;20316;-86
2023/07/24 07:49:19;;;;;;;;;;;;;;;29.06;42.13;100399.13;5064125;28;19920;-86
2023/07/24 07:51:45;;;;;;;;;;;;;;;29.13;41.71;100381.84;5059044;28;19993;-86
2023/07/24 07:54:10;;;;;;;;;;;;;;;29.30;41.21;100391.44;5062512;28;19925;-86
2023/07/24 07:56:36;;;;;;;;;;;;;;;29.51;40.52;100391.63;5056305;28;19970;-85
2023/07/24 07:59:01;;;;;;;;;;;;;;;29.52;40.19;100387.66;5061292;28;20303;-88
2023/07/24 08:01:26;;;;;;;;;;;;;;;29.56;40.78;100374.69;5058002;28;20451;-86
2023/07/24 08:03:51;;;;;;;;;;;;;;;29.70;40.61;100372.00;5064997;28;19936;-87
2023/07/24 08:06:17;;;;;;;;;;;;;;;29.88;40.32;100374.84;5061045;28;19912;-88
2023/07/24 08:08:42;;;;;;;;;;;;;;;30.10;40.27;100375.75;5063126;28;19920;-86
2023/07/24 08:11:08;;;;;;;;;;;;;;;30.15;39.44;100375.34;5067256;28;19917;-86
2023/07/24 08:13:33;;;;;;;;;;;;;;;30.23;38.93;100367.91;5068844;28;19916;-86
2023/07/24 08:15:59;;;;;;;;;;;;;;;30.27;38.66;100383.31;5057087;28;20405;-86
2023/07/24 08:18:25;;;;;;;;;;;;;;;30.32;37.89;100382.91;5061357;28;20468;-86
2023/07/24 08:20:50;;;;;;;;;;;;;;;30.25;37.91;100391.19;5063699;28;19956;-86
2023/07/24 08:23:15;;;;;;;;;;;;;;;30.16;38.40;100395.50;5065323;28;19920;-85
2023/07/24 08:25:50;;;;;;;;;;;;;;;30.24;38.18;100397.91;5065242;28;19981;-86
2023/07/24 08:28:15;;;;;;;;;;;;;;;30.28;38.29;100403.44;5060557;28;19949;-85
2023/07/24 08:30:40;;;;;;;;;;;;;;;30.42;37.61;100399.94;5063147;28;19932;-84
2023/07/24 08:33:06;;;;;;;;;;;;;;;30.46;38.12;100393.22;5059647;28;19920;-85
2023/07/24 08:35:31;;;;;;;;;;;;;;;30.69;37.96;100387.34;5064390;28;20357;-87
2023/07/24 08:37:56;;;;;;;;;;;;;;;30.88;37.74;100395.31;5065247;28;19917;-87
2023/07/24 08:40:22;;;;;;;;;;;;;;;31.01;37.38;100386.59;5060733;28;19924;-87
2023/07/24 08:42:49;;;;;;;;;;;;;;;31.03;36.43;100390.53;5060666;28;20031;-89
2023/07/24 08:45:15;;;;;;;;;;;;;;;30.96;37.00;100385.81;5058641;28;19924;-85
2023/07/24 08:47:46;;;;;;;;;;;;;;;30.96;37.22;100385.81;5058106;28;20304;-86
2023/07/24 08:50:12;;;;;;;;;;;;;;;30.98;37.09;100377.09;5055481;28;20009;-83
2023/07/24 08:52:38;;;;;;;;;;;;;;;30.97;37.18;100375.53;5060001;28;20477;-84
2023/07/24 08:55:04;;;;;;;;;;;;;;;30.86;36.53;100372.75;5053994;28;19969;-84
2023/07/24 08:57:30;;;;;;;;;;;;;;;30.72;36.93;100367.25;5059947;28;20062;-84
2023/07/24 08:59:55;;;;;;;;;;;;;;;30.69;37.24;100362.47;5056569;28;20007;-85
2023/07/24 09:02:20;;;;;;;;;;;;;;;30.74;36.63;100356.56;5055690;28;19925;-84
2023/07/24 09:04:45;;;;;;;;;;;;;;;30.79;36.44;100347.88;5067108;28;20170;-82
2023/07/24 09:07:11;;;;;;;;;;;;;;;30.84;36.14;100354.97;5060935;28;20341;-82
2023/07/24 09:09:36;;;;;;;;;;;;;;;30.93;36.23;100352.63;5057484;28;19923;-84
2023/07/24 09:12:02;;;;;;;;;;;;;;;30.97;36.32;100342.34;5062316;28;19989;-83
2023/07/24 09:14:30;;;;;;;;;;;;;;;30.98;35.97;100333.63;5060767;28;19920;-84
2023/07/24 09:17:05;;;;;;;;;;;;;;;31.14;35.79;100332.44;5057583;28;19921;-84
2023/07/24 09:19:31;;;;;;;;;;;;;;;31.25;35.24;100328.50;5059593;28;19920;-82
2023/07/24 09:21:56;;;;;;;;;;;;;;;31.48;35.51;100330.81;5061498;28;19921;-82
2023/07/24 09:24:21;;;;;;;;;;;;;;;31.62;34.54;100331.97;5056055;28;20448;-85
2023/07/24 09:26:50;;;;;;;;;;;;;;;31.58;34.81;100315.34;5064035;28;20034;-86
2023/07/24 09:29:16;;;;;;;;;;;;;;;31.59;34.92;100316.91;5058640;28;19946;-87
2023/07/24 09:31:43;;;;;;;;;;;;;;;31.68;34.74;100308.19;5062263;28;19920;-87
2023/07/24 09:34:15;;;;;;;;;;;;;;;31.81;34.47;100317.66;5057085;28;19917;-87
2023/07/24 09:36:40;;;;;;;;;;;;;;;31.89;34.77;100321.19;5061136;28;19916;-87
2023/07/24 09:39:08;;;;;;;;;;;;;;;31.95;34.57;100320.34;5062736;28;20303;-86
2023/07/24 09:41:33;;;;;;;;;;;;;;;31.96;34.25;100313.63;5061952;28;20325;-86
2023/07/24 09:43:58;;;;;;;;;;;;;;;32.05;34.23;100305.66;5057955;28;20130;-86
2023/07/24 09:46:24;;;;;;;;;;;;;;;32.13;34.13;100289.75;5062335;28;19924;-87
2023/07/24 09:48:49;;;;;;;;;;;;;;;32.17;33.30;100274.72;5053815;28;19957;-87
2023/07/24 09:51:15;;;;;;;;;;;;;;;32.22;33.31;100283.78;5051160;28;20364;-83
2023/07/24 09:53:46;;;;;;;;;;;;;;;32.22;33.74;100275.47;5059309;28;20396;-82
2023/07/24 09:56:12;;;;;;;;;;;;;;;32.16;33.76;100273.13;5060284;28;19924;-83
2023/07/24 09:58:38;;;;;;;;;;;;;;;32.17;33.02;100274.72;5055769;28;20377;-86
2023/07/24 10:01:08;;;;;;;;;;;;;;;32.23;33.19;100272.28;5055865;28;19920;-85
2023/07/24 10:03:38;;;;;;;;;;;;;;;32.22;32.60;100264.38;5055415;28;19963;-86
2023/07/24 10:06:04;;;;;;;;;;;;;;;32.24;33.11;100268.31;5058053;28;19917;-88
2023/07/24 10:08:30;;;;;;;;;;;;;;;32.32;33.31;100260.78;5055575;28;19932;-87
2023/07/24 10:10:55;;;;;;;;;;;;;;;32.34;32.34;100266.72;5055744;28;20182;-84
2023/07/24 10:13:21;;;;;;;;;;;;;;;32.26;32.35;100271.47;5052447;28;20120;-84
2023/07/24 10:15:47;;;;;;;;;;;;;;;32.13;32.38;100271.16;5054443;28;19932;-82
2023/07/24 10:18:14;;;;;;;;;;;;;;;32.04;32.82;100270.81;5044035;28;19925;-82
2023/07/24 10:20:40;;;;;;;;;;;;;;;32.03;32.45;100266.47;5042297;28;19928;-82
2023/07/24 10:23:08;;;;;;;;;;;;;;;32.04;32.50;100264.50;5040617;28;20277;-85
2023/07/24 10:25:35;;;;;;;;;;;;;;;32.11;32.46;100269.97;5039541;28;20011;-86
2023/07/24 10:28:07;;;;;;;;;;;;;;;32.18;32.00;100289.34;5041883;28;19934;-87
2023/07/24 10:30:37;;;;;;;;;;;;;;;32.11;31.62;100281.06;5041303;28;19962;-85
2023/07/24 10:33:07;;;;;;;;;;;;;;;32.09;32.10;100283.47;5048960;28;19999;-86
2023/07/24 10:35:43;;;;;;;;;;;;;;;32.11;31.80;100283.84;5060638;28;19920;-87
2023/07/24 10:38:08;;;;;;;;;;;;;;;32.06;31.75;100292.59;5049258;28;19924;-86
2023/07/24 10:40:34;;;;;;;;;;;;;;;31.97;31.70;100281.97;5046041;28;19965;-84
2023/07/24 10:43:20;;;;;;;;;;;;;;;31.91;31.62;100277.25;5048324;28;20384;-84
2023/07/24 10:45:47;;;;;;;;;;;;;;;31.91;31.86;100268.94;5046186;28;20363;-87
2023/07/24 10:48:13;;;;;;;;;;;;;;;31.95;31.84;100267.69;5041579;28;19925;-88
2023/07/24 10:50:39;;;;;;;;;;;;;;;32.03;31.40;100252.63;5055333;28;20095;-87
2023/07/24 10:53:05;;;;;;;;;;;;;;;32.26;31.49;100248.50;5059380;28;20086;-85
2023/07/24 10:55:30;;;;;;;;;;;;;;;32.39;30.91;100253.19;5040673;28;20865;-89
2023/07/24 10:57:55;;;;;;;;;;;;;;;32.52;31.11;100245.16;5053038;28;19925;-87
2023/07/24 11:00:21;;;;;;;;;;;;;;;32.69;31.16;100232.34;5043338;28;19924;-87
2023/07/24 11:02:46;;;;;;;;;;;;;;;32.98;30.41;100235.63;5043392;28;21531;-82
2023/07/24 11:05:12;;;;;;;;;;;;;;;33.22;30.48;100215.13;5041200;28;20006;-82
2023/07/24 11:07:37;;;;;;;;;;;;;;;33.45;29.88;100222.03;5042142;28;19920;-84
2023/07/24 11:10:03;;;;;;;;;;;;;;;33.52;30.30;100202.47;5045730;28;20327;-83
2023/07/24 11:12:30;;;;;;;;;;;;;;;33.72;30.11;100199.81;5046254;28;20400;-82
2023/07/24 11:14:56;;;;;;;;;;;;;;;33.92;30.00;100192.41;5047503;28;19925;-84
2023/07/24 11:17:22;;;;;;;;;;;;;;;34.07;29.43;100173.50;5049828;28;20118;-88
2023/07/24 11:19:47;;;;;;;;;;;;;;;34.12;29.84;100168.28;5048602;28;21393;-88
2023/07/24 11:22:13;;;;;;;;;;;;;;;34.22;29.19;100155.38;5058180;28;19924;-87
2023/07/24 11:24:45;;;;;;;;;;;;;;;34.34;29.39;100160.34;5059631;28;19924;-87
2023/07/24 11:27:15;;;;;;;;;;;;;;;34.42;29.36;100153.47;5057899;28;19942;-86
2023/07/24 11:29:40;;;;;;;;;;;;;;;34.59;28.91;100159.13;5053142;28;19928;-86
2023/07/24 11:32:06;;;;;;;;;;;;;;;34.62;28.84;100142.34;5051907;28;20369;-88
2023/07/24 11:34:31;;;;;;;;;;;;;;;34.51;28.46;100147.34;5044351;28;19925;-83
2023/07/24 11:36:57;;;;;;;;;;;;;;;34.53;28.53;100131.81;5047365;28;19986;-82
2023/07/24 11:39:23;;;;;;;;;;;;;;;34.52;28.33;100127.47;5045092;28;19924;-83
2023/07/24 11:41:49;;;;;;;;;;;;;;;34.49;28.62;100111.63;5044183;28;19930;-82
2023/07/24 11:44:16;;;;;;;;;;;;;;;34.46;28.16;100126.34;5058016;28;19925;-84
2023/07/24 11:46:42;;;;;;;;;;;;;;;34.43;28.42;100113.31;5051464;28;20418;-83
2023/07/24 11:49:07;;;;;;;;;;;;;;;34.59;28.67;100117.41;5048363;28;19920;-83
2023/07/24 11:51:33;;;;;;;;;;;;;;;34.74;28.02;100102.00;5046725;28;19928;-84
2023/07/24 11:54:11;;;;;;;;;;;;;;;34.79;27.71;100098.69;5057153;28;20419;-86
2023/07/24 11:56:36;;;;;;;;;;;;;;;34.93;27.51;100109.56;5054249;28;19927;-87
2023/07/24 11:59:11;;;;;;;;;;;;;;;35.09;27.35;100089.34;5043299;28;19924;-82
2023/07/24 12:01:37;;;;;;;;;;;;;;;35.16;27.53;100089.19;5043784;28;20001;-85
2023/07/24 12:04:03;;;;;;;;;;;;;;;35.29;27.26;100083.75;5046751;28;19924;-89
2023/07/24 12:06:30;;;;;;;;;;;;;;;35.33;26.71;100081.66;5049092;28;19935;-88
2023/07/24 12:09:02;;;;;;;;;;;;;;;35.37;26.84;100074.03;5054307;28;19925;-88
2023/07/24 12:11:27;;;;;;;;;;;;;;;35.23;26.64;100077.91;5049709;28;20386;-87
2023/07/24 12:13:53;;;;;;;;;;;;;;;35.08;27.26;100074.66;5045229;28;19928;-83
2023/07/24 12:16:18;;;;;;;;;;;;;;;34.96;26.90;100064.19;5045428;28;19928;-84
2023/07/24 12:18:45;;;;;;;;;;;;;;;34.69;27.11;100058.78;5040736;28;19920;-88
2023/07/24 12:21:10;;;;;;;;;;;;;;;34.39;26.72;100045.84;5044649;28;19924;-83
2023/07/24 12:23:36;;;;;;;;;;;;;;;34.19;27.32;100053.38;5042114;28;20002;-83
2023/07/24 12:26:01;;;;;;;;;;;;;;;34.07;27.13;100057.53;5046388;28;20610;-83
2023/07/24 12:28:26;;;;;;;;;;;;;;;34.04;26.99;100040.94;5051192;28;19966;-87